createdAt,value
2022-08-07T00:00:39.838Z,0.60
2022-08-07T00:03:10.435Z,0.70
2022-08-07T00:05:38.472Z,0.60
2022-08-07T00:08:07.744Z,0.60
2022-08-07T00:10:47.762Z,0.60
2022-08-07T00:13:23.549Z,0.67
2022-08-07T00:15:54.914Z,0.60
2022-08-07T00:18:25.123Z,0.60
2022-08-07T00:20:57.569Z,0.50
2022-08-07T00:23:31.714Z,0.60
2022-08-07T00:26:12.891Z,0.60
2022-08-07T00:28:46.154Z,0.60
2022-08-07T00:31:26.133Z,0.60
2022-08-07T00:34:08.858Z,0.50
2022-08-07T00:36:43.178Z,0.60
2022-08-07T00:39:17.093Z,0.67
2022-08-07T00:41:53.910Z,0.60
2022-08-07T00:44:30.773Z,0.60
2022-08-07T00:47:02.668Z,0.50
2022-08-07T00:50:20.351Z,0.60
2022-08-07T00:52:19.978Z,0.60
2022-08-07T00:54:53.573Z,0.60
2022-08-07T00:57:25.282Z,0.60
2022-08-07T00:59:54.461Z,0.60
2022-08-07T01:02:28.638Z,0.60
2022-08-07T01:04:58.693Z,0.60
2022-08-07T01:07:29.216Z,0.50
2022-08-07T01:10:06.925Z,0.50
2022-08-07T01:12:39.963Z,0.60
2022-08-07T01:15:23.145Z,0.50
2022-08-07T01:18:16.669Z,0.60
2022-08-07T01:20:57.284Z,0.60
2022-08-07T01:23:38.678Z,0.87
2022-08-07T01:26:13.224Z,0.60
2022-08-07T01:28:51.265Z,0.57
2022-08-07T01:31:42.406Z,0.50
2022-08-07T01:34:14.359Z,0.57
2022-08-07T01:36:44.261Z,0.60
2022-08-07T01:39:23.507Z,0.80
2022-08-07T01:42:37.251Z,0.70
2022-08-07T01:44:50.802Z,0.60
2022-08-07T01:48:18.978Z,0.60
2022-08-07T01:50:07.011Z,0.77
2022-08-07T01:52:39.019Z,0.60
2022-08-07T01:55:22.358Z,0.50
2022-08-07T01:58:05.636Z,0.60
2022-08-07T02:00:38.840Z,1.00
2022-08-07T02:03:50.429Z,0.80
2022-08-07T02:06:50.681Z,0.80
2022-08-07T02:09:53.194Z,1.00
2022-08-07T02:12:57.900Z,1.40
2022-08-07T02:16:14.733Z,0.63
2022-08-07T02:18:55.817Z,0.50
2022-08-07T02:21:26.950Z,0.50
2022-08-07T02:24:17.870Z,1.87
2022-08-07T02:26:47.947Z,1.90
2022-08-07T02:29:17.032Z,2.20
2022-08-07T02:31:51.535Z,0.70
2022-08-07T02:34:22.862Z,0.53
2022-08-07T02:36:57.969Z,0.70
2022-08-07T02:39:43.567Z,0.50
2022-08-07T02:42:22.851Z,2.90
2022-08-07T02:44:53.589Z,0.93
2022-08-07T02:47:25.853Z,3.30
2022-08-07T02:50:03.163Z,0.50
2022-08-07T02:52:39.248Z,2.77
2022-08-07T02:56:04.340Z,0.50
2022-08-07T02:58:21.757Z,0.90
2022-08-07T03:00:54.964Z,3.03
2022-08-07T03:03:29.600Z,1.33
2022-08-07T03:06:26.017Z,0.50
2022-08-07T03:09:02.817Z,0.60
2022-08-07T03:11:32.634Z,1.40
2022-08-07T03:14:02.443Z,0.70
2022-08-07T03:16:35.738Z,2.10
2022-08-07T03:19:07.760Z,1.00
2022-08-07T03:21:37.261Z,3.90
2022-08-07T03:24:19.903Z,1.93
2022-08-07T03:27:00.391Z,0.83
2022-08-07T03:29:44.534Z,0.90
2022-08-07T03:32:24.129Z,0.93
2022-08-07T03:35:17.070Z,2.07
2022-08-07T03:37:53.864Z,1.13
2022-08-07T03:40:31.139Z,1.37
2022-08-07T03:43:10.070Z,1.03
2022-08-07T03:45:47.489Z,0.60
2022-08-07T03:48:18.335Z,0.83
2022-08-07T03:50:55.893Z,0.80
2022-08-07T03:53:50.256Z,1.57
2022-08-07T03:56:33.235Z,0.70
2022-08-07T03:59:09.551Z,1.83
2022-08-07T04:01:45.943Z,1.03
2022-08-07T04:04:18.341Z,1.27
2022-08-07T04:06:52.722Z,0.70
2022-08-07T04:09:25.895Z,0.73
2022-08-07T04:12:25.108Z,1.07
2022-08-07T04:15:00.150Z,1.83
2022-08-07T04:18:56.928Z,0.80
2022-08-07T04:20:22.940Z,1.43
2022-08-07T04:23:01.311Z,0.80
2022-08-07T04:25:41.012Z,1.17
2022-08-07T04:28:13.265Z,1.50
2022-08-07T04:30:55.233Z,1.20
2022-08-07T04:33:29.148Z,0.80
2022-08-07T04:35:59.542Z,0.70
2022-08-07T04:38:30.812Z,0.70
2022-08-07T04:41:00.255Z,0.67
2022-08-07T04:44:13.003Z,1.33
2022-08-07T04:47:05.049Z,1.70
2022-08-07T04:50:03.953Z,0.80
2022-08-07T04:53:06.459Z,1.07
2022-08-07T04:58:12.966Z,0.70
2022-08-07T05:00:08.077Z,0.93
2022-08-07T05:02:07.615Z,1.00
2022-08-07T05:04:57.033Z,1.03
2022-08-07T05:07:51.513Z,1.97
2022-08-07T05:10:31.678Z,0.80
2022-08-07T05:13:09.850Z,0.77
2022-08-07T05:15:55.090Z,1.47
2022-08-07T05:18:36.666Z,1.00
2022-08-07T05:21:10.055Z,1.20
2022-08-07T05:23:57.266Z,0.80
2022-08-07T05:26:29.032Z,1.10
2022-08-07T05:29:05.890Z,1.77
2022-08-07T05:31:39.499Z,1.00
2022-08-07T05:34:15.844Z,1.33
2022-08-07T05:36:52.593Z,1.30
2022-08-07T05:40:16.858Z,1.73
2022-08-07T05:42:39.369Z,0.90
2022-08-07T05:45:26.327Z,1.07
2022-08-07T05:48:06.038Z,1.57
2022-08-07T05:50:44.606Z,1.80
2022-08-07T05:54:13.134Z,1.23
2022-08-07T05:56:06.798Z,1.17
2022-08-07T05:58:41.629Z,1.20
2022-08-07T06:01:21.993Z,3.23
2022-08-07T06:03:58.571Z,2.60
2022-08-07T06:06:36.895Z,2.03
2022-08-07T06:09:09.788Z,2.47
2022-08-07T06:11:44.479Z,1.67
2022-08-07T06:14:21.241Z,1.80
2022-08-07T06:16:57.659Z,4.10
2022-08-07T06:19:47.827Z,2.60
2022-08-07T06:22:27.152Z,2.13
2022-08-07T06:25:22.982Z,1.77
2022-08-07T06:28:01.655Z,2.63
2022-08-07T06:30:37.373Z,2.00
2022-08-07T06:33:19.322Z,1.53
2022-08-07T06:36:12.441Z,2.43
2022-08-07T06:38:51.601Z,1.70
2022-08-07T06:42:01.094Z,1.67
2022-08-07T06:44:51.618Z,1.60
2022-08-07T06:47:21.032Z,1.70
2022-08-07T06:49:58.454Z,1.97
2022-08-07T06:52:35.800Z,2.67
2022-08-07T06:55:31.420Z,2.53
2022-08-07T06:58:02.218Z,2.77
2022-08-07T07:00:39.437Z,3.40
2022-08-07T07:03:14.307Z,2.70
2022-08-07T07:06:02.706Z,2.10
2022-08-07T07:08:39.987Z,2.40
2022-08-07T07:12:06.718Z,1.50
2022-08-07T07:14:08.321Z,2.30
2022-08-07T07:16:49.487Z,1.77
2022-08-07T07:19:57.315Z,2.27
2022-08-07T07:22:36.262Z,2.40
2022-08-07T07:26:30.758Z,2.23
2022-08-07T07:28:03.202Z,3.13
2022-08-07T07:30:39.576Z,2.10
2022-08-07T07:33:13.903Z,2.47
2022-08-07T07:36:04.527Z,2.40
2022-08-07T07:38:36.049Z,2.80
2022-08-07T07:41:09.931Z,2.37
2022-08-07T07:44:14.749Z,2.80
2022-08-07T07:46:39.799Z,2.30
2022-08-07T07:50:34.011Z,2.57
2022-08-07T07:52:16.114Z,3.10
2022-08-07T07:54:51.450Z,1.90
2022-08-07T07:57:51.625Z,2.27
2022-08-07T08:00:15.035Z,2.27
2022-08-07T08:03:05.634Z,2.63
2022-08-07T08:05:51.017Z,2.43
2022-08-07T08:08:34.887Z,1.57
2022-08-07T08:11:13.501Z,2.67
2022-08-07T08:13:53.382Z,3.10
2022-08-07T08:18:36.531Z,2.70
2022-08-07T08:20:17.570Z,2.70
2022-08-07T08:22:56.604Z,3.47
2022-08-07T08:25:49.473Z,2.50
2022-08-07T08:28:23.878Z,1.93
2022-08-07T08:31:15.901Z,1.60
2022-08-07T08:33:49.638Z,2.30
2022-08-07T08:36:25.700Z,2.40
2022-08-07T08:39:02.769Z,2.57
2022-08-07T08:42:11.727Z,2.50
2022-08-07T08:44:49.035Z,2.20
2022-08-07T08:47:52.230Z,2.43
2022-08-07T08:50:39.831Z,1.80
2022-08-07T08:53:39.970Z,2.30
2022-08-07T08:56:47.489Z,2.63
2022-08-07T08:59:29.897Z,2.67
2022-08-07T09:02:36.410Z,2.60
2022-08-07T09:05:37.266Z,2.23
2022-08-07T09:08:28.160Z,2.40
2022-08-07T09:11:24.858Z,2.43
2022-08-07T09:14:35.628Z,2.30
2022-08-07T09:17:58.941Z,2.80
2022-08-07T09:20:58.643Z,2.40
2022-08-07T09:24:32.871Z,1.83
2022-08-07T09:27:28.953Z,2.80
2022-08-07T09:30:09.588Z,2.40
2022-08-07T09:32:54.404Z,2.70
2022-08-07T09:36:04.971Z,1.67
2022-08-07T09:38:59.110Z,1.60
2022-08-07T09:42:03.096Z,2.10
2022-08-07T09:47:25.882Z,2.80
2022-08-07T09:48:15.088Z,2.43
2022-08-07T09:52:09.746Z,3.00
2022-08-07T09:54:11.603Z,2.10
2022-08-07T09:57:13.015Z,2.40
2022-08-07T10:00:14.376Z,1.80
2022-08-07T10:02:55.687Z,2.10
2022-08-07T10:06:00.678Z,2.50
2022-08-07T10:08:56.872Z,2.20
2022-08-07T10:12:15.167Z,2.00
2022-08-07T10:15:37.825Z,2.03
2022-08-07T10:18:35.392Z,2.23
2022-08-07T10:22:14.840Z,2.40
2022-08-07T10:24:46.647Z,2.13
2022-08-07T10:27:25.378Z,3.00
2022-08-07T10:30:04.890Z,2.50
2022-08-07T10:32:52.320Z,3.17
2022-08-07T10:35:55.638Z,2.60
2022-08-07T10:39:04.514Z,1.80
2022-08-07T10:41:47.355Z,2.30
2022-08-07T10:44:51.891Z,2.40
2022-08-07T10:47:53.339Z,2.40
2022-08-07T10:50:33.950Z,2.00
2022-08-07T10:53:25.021Z,2.10
2022-08-07T10:56:32.872Z,3.03
2022-08-07T10:59:45.319Z,2.60
2022-08-07T11:02:37.941Z,3.00
2022-08-07T11:05:50.831Z,2.00
2022-08-07T11:08:45.922Z,2.20
2022-08-07T11:11:27.455Z,2.20
2022-08-07T11:14:46.452Z,2.50
2022-08-07T11:17:07.340Z,3.00
2022-08-07T11:19:42.596Z,2.50
2022-08-07T11:22:44.061Z,2.30
2022-08-07T11:25:48.245Z,2.20
2022-08-07T11:29:01.914Z,3.50
2022-08-07T11:31:42.548Z,2.23
2022-08-07T11:34:20.716Z,2.97
2022-08-07T11:37:38.598Z,2.53
2022-08-07T11:40:27.586Z,3.07
2022-08-07T11:43:05.618Z,2.40
2022-08-07T11:45:49.909Z,2.67
2022-08-07T11:49:50.804Z,2.30
2022-08-07T11:52:12.690Z,2.27
2022-08-07T11:54:59.217Z,2.50
2022-08-07T11:58:00.690Z,2.07
2022-08-07T12:00:48.891Z,2.50
2022-08-07T12:03:47.133Z,2.10
2022-08-07T12:06:51.560Z,2.40
2022-08-07T12:09:33.992Z,2.70
2022-08-07T12:12:14.689Z,2.20
2022-08-07T12:16:05.094Z,2.30
2022-08-07T12:18:46.057Z,2.30
2022-08-07T12:21:55.892Z,2.10
2022-08-07T12:25:10.025Z,3.50
2022-08-07T12:28:09.131Z,2.70
2022-08-07T12:30:41.466Z,2.20
2022-08-07T12:33:28.241Z,2.37
2022-08-07T12:36:02.154Z,2.70
2022-08-07T12:38:42.485Z,2.37
2022-08-07T12:41:12.623Z,2.97
2022-08-07T12:44:02.255Z,2.20
2022-08-07T12:47:14.483Z,2.20
2022-08-07T12:50:38.311Z,2.10
2022-08-07T12:53:27.644Z,2.33
2022-08-07T12:56:04.167Z,2.37
2022-08-07T12:58:43.914Z,2.17
2022-08-07T13:01:42.136Z,3.10
2022-08-07T13:05:01.117Z,2.27
2022-08-07T13:08:13.391Z,2.10
2022-08-07T13:10:52.146Z,2.30
2022-08-07T13:13:51.363Z,2.27
2022-08-07T13:16:46.898Z,2.30
2022-08-07T13:19:46.231Z,2.57
2022-08-07T13:22:32.672Z,2.40
2022-08-07T13:25:06.511Z,2.20
2022-08-07T13:28:10.679Z,2.07
2022-08-07T13:30:52.240Z,2.20
2022-08-07T13:34:33.384Z,2.10
2022-08-07T13:36:42.528Z,1.83
2022-08-07T13:40:34.142Z,2.10
2022-08-07T13:42:39.706Z,2.23
2022-08-07T13:45:20.768Z,2.40
2022-08-07T13:48:06.286Z,1.90
2022-08-07T13:50:44.385Z,1.90
2022-08-07T13:53:21.936Z,2.00
2022-08-07T13:55:54.550Z,1.80
2022-08-07T13:58:54.224Z,1.83
2022-08-07T14:01:28.668Z,1.97
2022-08-07T14:04:08.639Z,2.00
2022-08-07T14:06:40.550Z,1.90
2022-08-07T14:10:12.147Z,2.30
2022-08-07T14:12:49.463Z,2.53
2022-08-07T14:15:42.517Z,2.20
2022-08-07T14:18:44.684Z,1.83
2022-08-07T14:22:01.120Z,2.30
2022-08-07T14:24:41.501Z,1.90
2022-08-07T14:28:11.800Z,1.83
2022-08-07T14:30:11.201Z,2.73
2022-08-07T14:32:50.678Z,2.00
2022-08-07T14:35:43.123Z,2.00
2022-08-07T14:38:30.604Z,1.70
2022-08-07T14:41:12.377Z,2.20
2022-08-07T14:43:58.902Z,1.60
2022-08-07T14:46:33.870Z,2.00
2022-08-07T14:49:55.691Z,2.93
2022-08-07T14:52:04.890Z,1.83
2022-08-07T14:54:43.412Z,2.00
2022-08-07T14:57:19.393Z,1.80
2022-08-07T15:00:03.392Z,2.10
2022-08-07T15:02:39.293Z,2.30
2022-08-07T15:05:20.618Z,2.30
2022-08-07T15:07:52.723Z,2.10
2022-08-07T15:10:26.499Z,1.93
2022-08-07T15:13:00.880Z,1.70
2022-08-07T15:15:42.015Z,2.20
2022-08-07T15:21:44.368Z,1.70
2022-08-07T15:25:15.651Z,1.80
2022-08-07T15:27:11.567Z,1.67
2022-08-07T15:30:08.495Z,1.80
2022-08-07T15:32:39.820Z,1.97
2022-08-07T15:36:00.747Z,1.60
2022-08-07T15:38:30.426Z,1.60
2022-08-07T15:41:22.867Z,1.60
2022-08-07T15:44:07.539Z,1.80
2022-08-07T15:50:04.453Z,3.70
2022-08-07T15:52:30.490Z,2.63
2022-08-07T15:55:03.403Z,2.30
2022-08-07T15:57:39.795Z,2.57
2022-08-07T16:00:31.238Z,1.90
2022-08-07T16:03:21.803Z,1.60
2022-08-07T16:06:04.347Z,1.90
2022-08-07T16:08:38.847Z,1.50
2022-08-07T16:11:26.545Z,1.97
2022-08-07T16:14:03.479Z,1.63
2022-08-07T16:16:57.197Z,1.80
2022-08-07T16:19:42.071Z,1.60
2022-08-07T16:22:54.822Z,1.60
2022-08-07T16:25:27.726Z,2.20
2022-08-07T16:30:06.877Z,2.07
2022-08-07T16:31:51.217Z,1.43
2022-08-07T16:34:53.880Z,1.80
2022-08-07T16:38:04.470Z,1.53
2022-08-07T16:41:02.221Z,1.60
2022-08-07T16:44:46.046Z,1.80
2022-08-07T16:47:56.520Z,1.60
2022-08-07T16:51:20.953Z,1.80
2022-08-07T16:54:09.643Z,1.37
2022-08-07T16:56:49.373Z,1.90
2022-08-07T16:59:46.217Z,1.40
2022-08-07T17:02:53.448Z,1.50
2022-08-07T17:06:28.310Z,1.50
2022-08-07T17:09:15.822Z,1.70
2022-08-07T17:12:35.732Z,1.53
2022-08-07T17:15:16.009Z,1.50
2022-08-07T17:18:08.040Z,1.60
2022-08-07T17:20:41.721Z,1.53
2022-08-07T17:24:06.040Z,1.53
2022-08-07T17:26:50.914Z,2.30
2022-08-07T17:30:15.157Z,1.53
2022-08-07T17:34:10.351Z,1.60
2022-08-07T17:36:28.462Z,1.40
2022-08-07T17:39:10.510Z,1.50
2022-08-07T17:42:06.587Z,1.50
2022-08-07T17:44:51.781Z,1.57
2022-08-07T17:48:00.686Z,1.30
2022-08-07T17:50:54.401Z,1.80
2022-08-07T17:54:01.311Z,1.70
2022-08-07T17:56:49.626Z,1.50
2022-08-07T18:00:05.767Z,1.53
2022-08-07T18:02:56.739Z,1.50
2022-08-07T18:06:02.818Z,1.50
2022-08-07T18:08:31.503Z,1.33
2022-08-07T18:12:07.680Z,1.47
2022-08-07T18:14:29.153Z,1.43
2022-08-07T18:17:05.226Z,1.43
2022-08-07T18:21:06.352Z,1.33
2022-08-07T18:23:42.257Z,1.20
2022-08-07T18:26:14.912Z,1.23
2022-08-07T18:30:07.093Z,1.10
2022-08-07T18:32:31.533Z,1.10
2022-08-07T18:35:19.153Z,1.10
2022-08-07T18:38:56.988Z,1.20
2022-08-07T18:41:45.096Z,1.00
2022-08-07T18:45:39.893Z,1.27
2022-08-07T18:47:45.065Z,1.10
2022-08-07T18:50:39.095Z,1.07
2022-08-07T18:53:16.467Z,1.10
2022-08-07T18:56:20.314Z,1.10
2022-08-07T18:59:46.918Z,1.10
2022-08-07T19:02:42.189Z,1.10
2022-08-07T19:06:02.017Z,1.10
2022-08-07T19:08:46.303Z,1.10
2022-08-07T19:11:37.392Z,1.10
2022-08-07T19:14:20.289Z,1.33
2022-08-07T19:17:06.001Z,1.00
2022-08-07T19:19:58.290Z,1.10
2022-08-07T19:22:51.684Z,0.90
2022-08-07T19:26:21.602Z,1.10
2022-08-07T19:28:56.697Z,1.10
2022-08-07T19:31:40.512Z,1.10
2022-08-07T19:34:14.495Z,1.10
2022-08-07T19:37:10.260Z,1.20
2022-08-07T19:39:57.414Z,0.90
2022-08-07T19:42:40.147Z,1.10
2022-08-07T19:45:31.122Z,1.00
2022-08-07T19:48:18.688Z,0.90
2022-08-07T19:50:53.604Z,1.00
2022-08-07T19:54:32.246Z,0.90
2022-08-07T19:56:58.528Z,1.10
2022-08-07T19:59:02.595Z,0.90
2022-08-07T20:01:56.009Z,1.00
2022-08-07T20:04:37.395Z,1.00
2022-08-07T20:07:11.216Z,0.90
2022-08-07T20:10:37.169Z,1.10
2022-08-07T20:12:37.937Z,1.00
2022-08-07T20:15:09.740Z,1.10
2022-08-07T20:18:01.808Z,0.90
2022-08-07T20:20:37.244Z,1.00
2022-08-07T20:23:23.364Z,0.90
2022-08-07T20:26:09.975Z,0.80
2022-08-07T20:28:41.202Z,1.00
2022-08-07T20:31:21.792Z,0.90
2022-08-07T20:33:57.323Z,0.80
2022-08-07T20:36:30.993Z,0.90
2022-08-07T20:39:00.902Z,0.90
2022-08-07T20:41:48.932Z,0.90
2022-08-07T20:44:20.191Z,0.83
2022-08-07T20:46:48.671Z,0.90
2022-08-07T20:49:58.285Z,0.73
2022-08-07T20:52:29.951Z,0.80
2022-08-07T20:55:14.245Z,0.80
2022-08-07T20:57:59.942Z,0.70
2022-08-07T21:00:44.407Z,1.47
2022-08-07T21:03:16.132Z,0.80
2022-08-07T21:06:21.645Z,0.80
2022-08-07T21:09:03.310Z,0.80
2022-08-07T21:11:50.237Z,0.70
2022-08-07T21:14:33.156Z,0.70
2022-08-07T21:18:17.441Z,0.80
2022-08-07T21:20:04.468Z,0.80
2022-08-07T21:22:53.546Z,0.80
2022-08-07T21:25:38.921Z,0.70
2022-08-07T21:28:47.569Z,0.70
2022-08-07T21:31:15.127Z,0.70
2022-08-07T21:34:07.633Z,0.63
2022-08-07T21:36:42.814Z,0.97
2022-08-07T21:39:56.558Z,0.70
2022-08-07T21:42:42.688Z,0.70
2022-08-07T21:46:05.331Z,0.70
2022-08-07T21:48:57.499Z,0.70
2022-08-07T21:51:51.156Z,0.70
2022-08-07T21:54:53.239Z,0.70
2022-08-07T21:57:51.932Z,0.60
2022-08-07T22:00:25.299Z,0.60
2022-08-07T22:03:30.971Z,0.60
2022-08-07T22:06:06.184Z,0.70
2022-08-07T22:08:49.805Z,0.60
2022-08-07T22:11:19.595Z,0.60
2022-08-07T22:13:55.315Z,0.60
2022-08-07T22:16:47.701Z,0.60
2022-08-07T22:19:42.368Z,0.60
2022-08-07T22:22:27.838Z,0.60
2022-08-07T22:25:13.202Z,0.60
2022-08-07T22:28:19.902Z,0.60
2022-08-07T22:31:45.577Z,0.60
2022-08-07T22:34:13.660Z,0.60
2022-08-07T22:37:17.381Z,0.60
2022-08-07T22:40:11.113Z,0.60
2022-08-07T22:42:41.404Z,0.80
2022-08-07T22:46:04.317Z,0.50
2022-08-07T22:48:54.731Z,0.50
2022-08-07T22:52:01.378Z,0.73
2022-08-07T22:55:17.344Z,0.60
2022-08-07T22:58:28.123Z,0.50
2022-08-07T23:01:06.189Z,0.60
2022-08-07T23:03:57.950Z,0.50
2022-08-07T23:06:51.322Z,0.50
2022-08-07T23:10:03.850Z,0.50
2022-08-07T23:12:37.275Z,0.50
2022-08-07T23:16:05.609Z,0.50
2022-08-07T23:19:16.402Z,0.53
2022-08-07T23:22:31.366Z,0.60
2022-08-07T23:25:24.169Z,0.60
2022-08-07T23:28:21.156Z,0.50
2022-08-07T23:32:49.256Z,0.50
2022-08-07T23:34:39.719Z,0.60
2022-08-07T23:38:01.083Z,0.50
2022-08-07T23:41:01.058Z,0.57
2022-08-07T23:43:47.133Z,0.60
2022-08-07T23:46:33.704Z,0.60
2022-08-07T23:49:42.152Z,0.60
2022-08-07T23:52:58.608Z,0.50
2022-08-07T23:55:53.110Z,0.50
2022-08-07T23:59:10.892Z,0.60
